Time;durP1;ratioP1;P1;durP2;ratioP2;P2;SDS_P1;SDS_P2;PMS_P1;PMS_P2;Temp;Humidity;BMP_temperature;BMP_pressure;BME280_temperature;BME280_humidity;BME280_pressure;Samples;Min_cycle;Max_cycle;Signal;HPM_P1;HPM_P2
2023/11/24 00:02:01;;;;;;;0.30;0.20;;;4.20;99.90;;;;;;5123526;27;20335;-76
2023/11/24 00:04:27;;;;;;;0.30;0.30;;;4.20;99.90;;;;;;5106989;28;20253;-76
2023/11/24 00:06:53;;;;;;;0.30;0.20;;;4.10;99.90;;;;;;5106276;28;20179;-76
2023/11/24 00:09:19;;;;;;;0.30;0.20;;;4.10;99.90;;;;;;5122686;27;20460;-76
2023/11/24 00:11:46;;;;;;;0.30;0.20;;;4.10;99.90;;;;;;5123528;27;20179;-79
2023/11/24 00:14:12;;;;;;;0.30;0.30;;;4.10;99.90;;;;;;5107483;28;20320;-78
2023/11/24 00:16:38;;;;;;;0.30;0.20;;;4.10;99.90;;;;;;5107251;28;20224;-76
2023/11/24 00:19:10;;;;;;;0.30;0.30;;;4.00;99.90;;;;;;5107585;28;20203;-76
2023/11/24 00:21:37;;;;;;;0.30;0.20;;;4.00;99.90;;;;;;5107366;28;20172;-76
2023/11/24 00:24:04;;;;;;;0.30;0.28;;;4.00;99.90;;;;;;5107343;28;20597;-76
2023/11/24 00:26:33;;;;;;;0.30;0.30;;;4.00;99.90;;;;;;5107774;28;20171;-79
2023/11/24 00:28:59;;;;;;;0.30;0.30;;;3.90;99.90;;;;;;5107325;28;20195;-78
2023/11/24 00:31:26;;;;;;;0.30;0.20;;;3.90;99.90;;;;;;5107661;28;20168;-78
2023/11/24 00:33:52;;;;;;;0.30;0.20;;;3.80;99.90;;;;;;5122499;27;20599;-76
2023/11/24 00:36:18;;;;;;;0.30;0.20;;;3.80;99.90;;;;;;5123016;27;20657;-78
2023/11/24 00:38:44;;;;;;;0.30;0.20;;;3.70;99.90;;;;;;5106779;28;20202;-76
2023/11/24 00:41:13;;;;;;;0.30;0.20;;;3.70;99.90;;;;;;5122720;27;20215;-77
2023/11/24 00:43:39;;;;;;;0.30;0.28;;;3.70;99.90;;;;;;5122460;27;20192;-78
2023/11/24 00:46:06;;;;;;;0.30;0.20;;;3.70;99.90;;;;;;5107232;27;20354;-76
2023/11/24 00:48:32;;;;;;;0.30;0.30;;;3.70;99.90;;;;;;5106860;28;20761;-78
2023/11/24 00:50:57;;;;;;;0.30;0.20;;;3.70;99.90;;;;;;5122725;27;20730;-76
2023/11/24 00:53:23;;;;;;;0.30;0.30;;;3.70;99.90;;;;;;5122436;27;20467;-78
2023/11/24 00:55:48;;;;;;;0.30;0.30;;;3.70;99.90;;;;;;5107292;28;20168;-76
2023/11/24 00:58:14;;;;;;;0.30;0.30;;;3.60;99.90;;;;;;5122434;27;20660;-79
2023/11/24 01:00:40;;;;;;;0.30;0.20;;;3.60;99.90;;;;;;5106993;28;20224;-76
2023/11/24 01:03:05;;;;;;;0.30;0.30;;;3.60;99.90;;;;;;5122085;27;20192;-76
2023/11/24 01:05:33;;;;;;;0.30;0.30;;;3.60;99.90;;;;;;5105901;28;20210;-78
2023/11/24 01:07:58;;;;;;;0.30;0.30;;;3.50;99.90;;;;;;5106296;28;20666;-79
2023/11/24 01:10:24;;;;;;;0.30;0.30;;;3.50;99.90;;;;;;5106592;28;20381;-76
2023/11/24 01:12:51;;;;;;;0.30;0.30;;;3.50;99.90;;;;;;5106357;28;20364;-78
2023/11/24 01:15:17;;;;;;;0.30;0.20;;;3.50;99.90;;;;;;5122279;27;20423;-78
2023/11/24 01:17:47;;;;;;;0.30;0.30;;;3.50;99.90;;;;;;5122049;27;20219;-78
2023/11/24 01:20:15;;;;;;;0.30;0.30;;;3.40;99.90;;;;;;5121872;27;20187;-78
2023/11/24 01:22:41;;;;;;;0.30;0.30;;;3.40;99.90;;;;;;5106339;28;20637;-77
2023/11/24 01:25:08;;;;;;;0.30;0.30;;;3.40;99.90;;;;;;5106845;28;20271;-75
2023/11/24 01:27:33;;;;;;;0.30;0.20;;;3.30;99.90;;;;;;5122177;27;20408;-77
2023/11/24 01:29:59;;;;;;;0.30;0.20;;;3.30;99.90;;;;;;5106421;28;20375;-76
2023/11/24 01:32:25;;;;;;;0.30;0.28;;;3.20;99.90;;;;;;5106497;28;20176;-76
2023/11/24 01:34:51;;;;;;;0.30;0.30;;;3.10;99.90;;;;;;5121804;27;20222;-76
2023/11/24 01:37:17;;;;;;;0.30;0.30;;;3.20;99.90;;;;;;5121971;27;20379;-78
2023/11/24 01:39:43;;;;;;;0.30;0.30;;;3.10;99.90;;;;;;5106264;28;20266;-78
2023/11/24 01:42:09;;;;;;;0.30;0.30;;;3.10;99.90;;;;;;5105948;28;20427;-79
2023/11/24 01:44:34;;;;;;;0.30;0.30;;;3.10;99.90;;;;;;5122062;27;20444;-78
2023/11/24 01:47:00;;;;;;;0.30;0.30;;;3.10;99.90;;;;;;5121529;27;20175;-76
2023/11/24 01:49:27;;;;;;;0.30;0.30;;;3.10;99.90;;;;;;5106011;28;20282;-76
2023/11/24 01:51:55;;;;;;;0.30;0.30;;;3.10;99.90;;;;;;5106130;28;20537;-78
2023/11/24 01:54:24;;;;;;;0.30;0.30;;;3.10;99.90;;;;;;5105893;28;20251;-77
2023/11/24 01:56:51;;;;;;;0.30;0.30;;;3.10;99.90;;;;;;5105998;28;20182;-76
2023/11/24 01:59:18;;;;;;;0.30;0.30;;;3.10;99.90;;;;;;5106039;28;20606;-78
2023/11/24 02:01:44;;;;;;;0.30;0.30;;;3.10;99.90;;;;;;5105958;28;20533;-78
2023/11/24 02:04:10;;;;;;;0.30;0.20;;;3.10;99.90;;;;;;5105667;28;20255;-76
2023/11/24 02:06:36;;;;;;;0.30;0.30;;;3.00;99.90;;;;;;5120865;28;20663;-78
2023/11/24 02:09:01;;;;;;;0.30;0.20;;;3.10;99.90;;;;;;5121341;28;20423;-77
2023/11/24 02:11:27;;;;;;;0.30;0.30;;;3.00;99.90;;;;;;5106044;28;20405;-76
2023/11/24 02:13:53;;;;;;;0.30;0.30;;;3.10;99.90;;;;;;5121297;28;20227;-78
2023/11/24 02:16:19;;;;;;;0.30;0.20;;;3.00;99.90;;;;;;5121432;28;20224;-77
2023/11/24 02:18:44;;;;;;;0.30;0.20;;;3.00;99.90;;;;;;5105616;28;20912;-78
2023/11/24 02:21:10;;;;;;;0.30;0.20;;;2.90;99.90;;;;;;5121676;28;20413;-76
2023/11/24 02:23:36;;;;;;;0.30;0.30;;;2.90;99.90;;;;;;5105431;28;20398;-78
2023/11/24 02:26:02;;;;;;;0.30;0.30;;;2.90;99.90;;;;;;5121511;28;20520;-78
2023/11/24 02:28:28;;;;;;;0.30;0.30;;;2.90;99.90;;;;;;5105329;28;20188;-75
2023/11/24 02:30:59;;;;;;;0.30;0.20;;;2.80;99.90;;;;;;5105587;28;20749;-75
2023/11/24 02:33:25;;;;;;;0.30;0.30;;;2.80;99.90;;;;;;5124426;27;20230;-75
2023/11/24 02:35:51;;;;;;;0.30;0.30;;;2.80;99.90;;;;;;5109981;28;20262;-77
2023/11/24 02:38:17;;;;;;;0.50;0.30;;;2.80;99.90;;;;;;5109227;28;20748;-80
2023/11/24 02:40:43;;;;;;;0.30;0.20;;;2.70;99.90;;;;;;5109819;28;20523;-80
2023/11/24 02:43:09;;;;;;;0.30;0.20;;;2.60;99.90;;;;;;5124862;27;20238;-78
2023/11/24 02:45:35;;;;;;;0.30;0.30;;;2.60;99.90;;;;;;5125579;27;20690;-75
2023/11/24 02:48:01;;;;;;;0.30;0.30;;;2.60;99.90;;;;;;5125027;27;20200;-75
2023/11/24 02:50:27;;;;;;;0.30;0.30;;;2.60;99.90;;;;;;5125318;27;20738;-75
2023/11/24 02:52:54;;;;;;;0.30;0.20;;;2.60;99.90;;;;;;5124635;27;20406;-75
2023/11/24 02:55:20;;;;;;;0.30;0.20;;;2.60;99.90;;;;;;5125112;27;20283;-78
2023/11/24 02:57:48;;;;;;;0.30;0.30;;;2.60;99.90;;;;;;5108968;28;20209;-77
2023/11/24 03:00:15;;;;;;;0.30;0.30;;;2.70;99.90;;;;;;5109062;28;20203;-80
2023/11/24 03:02:41;;;;;;;1.42;1.42;;;2.70;99.90;;;;;;5108817;28;20625;-78
2023/11/24 03:05:07;;;;;;;0.30;0.20;;;2.60;99.90;;;;;;5109284;28;20176;-78
2023/11/24 03:07:37;;;;;;;0.30;0.20;;;2.60;99.90;;;;;;5108911;28;20371;-76
2023/11/24 03:10:05;;;;;;;0.30;0.20;;;2.60;99.90;;;;;;5123978;27;20192;-78
2023/11/24 03:12:31;;;;;;;0.30;0.20;;;2.60;99.90;;;;;;5124249;27;20702;-75
2023/11/24 03:14:58;;;;;;;0.30;0.20;;;2.70;99.90;;;;;;5124614;27;20427;-76
2023/11/24 03:17:23;;;;;;;0.30;0.20;;;2.80;99.90;;;;;;5124292;27;21010;-78
2023/11/24 03:19:49;;;;;;;1.13;1.13;;;2.80;99.90;;;;;;5108856;28;20295;-76
2023/11/24 03:22:15;;;;;;;0.30;0.20;;;2.90;99.90;;;;;;5108686;28;20418;-79
2023/11/24 03:24:40;;;;;;;0.30;0.20;;;2.90;99.90;;;;;;5124343;27;20204;-76
2023/11/24 03:27:06;;;;;;;0.30;0.30;;;2.90;99.90;;;;;;5108596;28;20168;-75
2023/11/24 03:29:36;;;;;;;0.30;0.20;;;2.90;99.90;;;;;;5108605;28;20199;-76
2023/11/24 03:32:02;;;;;;;0.30;0.20;;;2.90;99.90;;;;;;5124358;27;20758;-76
2023/11/24 03:34:28;;;;;;;0.30;0.20;;;2.80;99.90;;;;;;5108570;27;20740;-78
2023/11/24 03:36:54;;;;;;;0.30;0.20;;;2.80;99.90;;;;;;5108318;28;20208;-76
2023/11/24 03:39:21;;;;;;;0.30;0.20;;;2.80;99.90;;;;;;5124033;27;20299;-76
2023/11/24 03:41:47;;;;;;;0.30;0.30;;;2.70;99.90;;;;;;5108048;28;20721;-76
2023/11/24 03:44:13;;;;;;;0.30;0.20;;;2.70;99.90;;;;;;5122216;27;20566;-76
2023/11/24 03:46:39;;;;;;;0.30;0.20;;;2.80;99.90;;;;;;5124209;27;20171;-78
2023/11/24 03:49:06;;;;;;;0.30;0.20;;;2.80;99.90;;;;;;5107568;28;20574;-76
2023/11/24 03:51:33;;;;;;;0.73;0.73;;;2.80;99.90;;;;;;5123849;27;20172;-76
2023/11/24 03:53:59;;;;;;;0.30;0.20;;;2.80;99.90;;;;;;5107553;28;20402;-76
2023/11/24 03:56:25;;;;;;;0.30;0.20;;;2.80;99.90;;;;;;5108240;28;20178;-75
2023/11/24 03:58:51;;;;;;;0.30;0.20;;;2.80;99.90;;;;;;5107641;27;20205;-75
2023/11/24 04:01:17;;;;;;;0.30;0.20;;;2.90;99.90;;;;;;5107989;28;20254;-75
2023/11/24 04:03:46;;;;;;;0.30;0.20;;;2.90;99.90;;;;;;5123356;27;20489;-78
2023/11/24 04:06:13;;;;;;;0.30;0.20;;;2.90;99.90;;;;;;5107886;27;20221;-78
2023/11/24 04:08:39;;;;;;;0.30;0.20;;;2.90;99.90;;;;;;5107596;28;20897;-78
2023/11/24 04:11:05;;;;;;;0.30;0.20;;;2.90;99.90;;;;;;5123204;27;20217;-77
2023/11/24 04:13:31;;;;;;;0.30;0.20;;;2.90;99.90;;;;;;5122835;27;20446;-75
2023/11/24 04:15:57;;;;;;;0.30;0.30;;;3.00;99.90;;;;;;5123128;27;20253;-78
2023/11/24 04:18:24;;;;;;;0.30;0.20;;;3.00;99.90;;;;;;5122918;27;20554;-75
2023/11/24 04:20:50;;;;;;;0.30;0.20;;;3.00;99.90;;;;;;5123440;27;20225;-78
2023/11/24 04:23:17;;;;;;;0.30;0.20;;;2.90;99.90;;;;;;5122725;27;20214;-75
2023/11/24 04:25:46;;;;;;;0.30;0.20;;;2.90;99.90;;;;;;5107808;28;20515;-75
2023/11/24 04:28:14;;;;;;;0.30;0.30;;;2.80;99.90;;;;;;5107430;28;20192;-75
2023/11/24 04:30:40;;;;;;;0.30;0.30;;;2.80;99.90;;;;;;5107911;28;20291;-78
2023/11/24 04:33:06;;;;;;;0.30;0.20;;;2.80;99.90;;;;;;5106947;28;20290;-75
2023/11/24 04:35:33;;;;;;;0.30;0.20;;;2.70;99.90;;;;;;5107801;28;20416;-77
2023/11/24 04:37:59;;;;;;;0.30;0.20;;;2.70;99.90;;;;;;5106820;28;20219;-78
2023/11/24 04:40:25;;;;;;;0.30;0.30;;;2.60;99.90;;;;;;5123280;27;20218;-78
2023/11/24 04:42:52;;;;;;;0.30;0.30;;;2.60;99.90;;;;;;5106545;28;20919;-78
2023/11/24 04:45:18;;;;;;;0.30;0.20;;;2.50;99.90;;;;;;5107521;28;20178;-75
2023/11/24 04:47:43;;;;;;;0.30;0.20;;;2.50;99.90;;;;;;5122544;27;20384;-78
2023/11/24 04:50:10;;;;;;;0.30;0.20;;;2.50;99.90;;;;;;5106955;28;20539;-76
2023/11/24 04:52:36;;;;;;;0.30;0.20;;;2.60;99.90;;;;;;5121925;27;20644;-77
2023/11/24 04:55:03;;;;;;;0.30;0.20;;;2.50;99.90;;;;;;5106314;27;20285;-76
2023/11/24 04:57:33;;;;;;;0.30;0.20;;;2.50;99.90;;;;;;5106404;28;20228;-78
2023/11/24 05:00:00;;;;;;;0.40;0.40;;;2.50;99.90;;;;;;5122534;27;20387;-78
2023/11/24 05:02:27;;;;;;;0.30;0.20;;;2.50;99.90;;;;;;5122119;27;20176;-76
2023/11/24 05:04:54;;;;;;;0.30;0.30;;;2.50;99.90;;;;;;5106379;28;20332;-75
2023/11/24 05:07:21;;;;;;;0.30;0.20;;;2.50;99.90;;;;;;5122150;27;20440;-76
2023/11/24 05:09:47;;;;;;;0.30;0.20;;;2.50;99.90;;;;;;5120723;27;20222;-77
2023/11/24 05:12:13;;;;;;;0.30;0.30;;;2.50;99.90;;;;;;5121663;27;20270;-75
2023/11/24 05:14:39;;;;;;;0.30;0.20;;;2.60;99.90;;;;;;5106374;28;20219;-78
2023/11/24 05:17:05;;;;;;;0.30;0.20;;;2.60;99.90;;;;;;5121331;27;20314;-78
2023/11/24 05:19:31;;;;;;;0.30;0.20;;;2.70;99.90;;;;;;5120910;27;20444;-78
2023/11/24 05:21:56;;;;;;;0.30;0.20;;;2.80;99.90;;;;;;5104831;28;20552;-78
2023/11/24 05:24:22;;;;;;;0.30;0.20;;;2.80;99.90;;;;;;5104303;28;20812;-75
2023/11/24 05:26:48;;;;;;;0.30;0.20;;;2.90;99.90;;;;;;5103208;28;20217;-75
2023/11/24 05:29:13;;;;;;;0.30;0.20;;;2.90;99.90;;;;;;5103452;28;20192;-78
2023/11/24 05:31:39;;;;;;;0.30;0.20;;;3.00;99.90;;;;;;5118305;27;20216;-75
2023/11/24 05:34:06;;;;;;;0.30;0.30;;;3.10;99.90;;;;;;5102890;28;20415;-75
2023/11/24 05:36:33;;;;;;;0.30;0.20;;;3.10;99.90;;;;;;5104702;28;20180;-75
2023/11/24 05:38:59;;;;;;;0.30;0.20;;;3.10;99.90;;;;;;5102435;28;20278;-78
2023/11/24 05:41:26;;;;;;;0.30;0.20;;;3.10;99.90;;;;;;5103255;28;20176;-77
2023/11/24 05:43:52;;;;;;;0.30;0.20;;;3.10;99.90;;;;;;5098140;28;20588;-77
2023/11/24 05:46:18;;;;;;;0.30;0.30;;;3.10;99.90;;;;;;5087105;28;20197;-77
2023/11/24 05:48:45;;;;;;;0.30;0.20;;;3.20;99.90;;;;;;5085598;28;20235;-75
2023/11/24 05:51:11;;;;;;;0.30;0.20;;;3.20;99.90;;;;;;5097433;28;20431;-78
2023/11/24 05:53:37;;;;;;;0.30;0.20;;;3.20;99.90;;;;;;5100332;28;20355;-76
2023/11/24 05:56:05;;;;;;;0.30;0.20;;;3.30;99.90;;;;;;5102951;28;20435;-76
2023/11/24 05:58:32;;;;;;;0.30;0.20;;;3.20;99.90;;;;;;5101487;28;20199;-75
2023/11/24 06:00:58;;;;;;;0.30;0.20;;;3.30;99.90;;;;;;5093137;28;20196;-75
2023/11/24 06:03:24;;;;;;;0.30;0.20;;;3.30;99.90;;;;;;5105196;28;20232;-79
2023/11/24 06:05:51;;;;;;;0.30;0.25;;;3.30;99.90;;;;;;5104758;28;20616;-75
2023/11/24 06:08:17;;;;;;;0.30;0.20;;;3.20;99.90;;;;;;5107691;28;20191;-79
2023/11/24 06:10:43;;;;;;;0.30;0.20;;;3.20;99.90;;;;;;5125713;27;20236;-75
2023/11/24 06:13:09;;;;;;;0.30;0.28;;;3.20;99.90;;;;;;5111869;27;20557;-81
2023/11/24 06:15:34;;;;;;;49.20;46.50;;;3.20;99.90;;;;;;5108481;28;20184;-76
2023/11/24 06:18:00;;;;;;;0.30;0.20;;;3.20;99.90;;;;;;5107527;28;20200;-76
2023/11/24 06:20:26;;;;;;;0.30;0.20;;;3.20;99.90;;;;;;5108383;28;20396;-78
2023/11/24 06:22:51;;;;;;;0.30;0.20;;;3.20;99.90;;;;;;5105982;28;20423;-76
2023/11/24 06:25:17;;;;;;;0.30;0.20;;;3.30;99.90;;;;;;5120044;27;20563;-76
2023/11/24 06:27:44;;;;;;;0.30;0.20;;;3.20;99.90;;;;;;5107481;28;20171;-75
2023/11/24 06:30:10;;;;;;;0.30;0.20;;;3.20;99.90;;;;;;5123562;27;20348;-78
2023/11/24 06:32:36;;;;;;;0.30;0.20;;;3.20;99.90;;;;;;5105537;28;20176;-76
2023/11/24 06:35:02;;;;;;;0.30;0.20;;;3.10;99.90;;;;;;5103234;27;20215;-76
2023/11/24 06:37:27;;;;;;;0.30;0.20;;;3.20;99.90;;;;;;5085023;28;20176;-76
2023/11/24 06:39:53;;;;;;;0.30;0.20;;;3.20;99.90;;;;;;5086626;28;20484;-76
2023/11/24 06:42:19;;;;;;;0.30;0.20;;;3.20;99.90;;;;;;5093073;28;20179;-79
2023/11/24 06:44:44;;;;;;;0.30;0.20;;;3.20;99.90;;;;;;5104938;28;20640;-78
2023/11/24 06:47:10;;;;;;;0.30;0.20;;;3.20;99.90;;;;;;5103806;28;20191;-77
2023/11/24 06:49:36;;;;;;;0.30;0.30;;;3.20;99.90;;;;;;5118056;27;20443;-77
2023/11/24 06:52:02;;;;;;;0.30;0.20;;;3.20;99.90;;;;;;5105888;28;20419;-78
2023/11/24 06:54:29;;;;;;;0.30;0.20;;;3.30;99.90;;;;;;5105678;28;20300;-76
2023/11/24 06:56:55;;;;;;;0.30;0.20;;;3.30;99.90;;;;;;5106784;28;20557;-76
2023/11/24 06:59:22;;;;;;;0.30;0.20;;;3.30;99.90;;;;;;5103107;28;20199;-76
2023/11/24 07:01:48;;;;;;;0.30;0.20;;;3.30;99.90;;;;;;5097398;28;20633;-76
2023/11/24 07:04:16;;;;;;;0.30;0.20;;;3.30;99.90;;;;;;5097513;28;20204;-75
2023/11/24 07:06:41;;;;;;;0.30;0.20;;;3.40;99.90;;;;;;5110562;27;20601;-78
2023/11/24 07:09:07;;;;;;;0.30;0.20;;;3.40;99.90;;;;;;5094249;28;20208;-78
2023/11/24 07:11:33;;;;;;;0.30;0.20;;;3.40;99.90;;;;;;5101752;28;20823;-78
2023/11/24 07:13:59;;;;;;;0.30;0.20;;;3.50;99.90;;;;;;5098822;28;20470;-79
2023/11/24 07:16:25;;;;;;;0.30;0.20;;;3.50;99.90;;;;;;5103800;28;20220;-76
2023/11/24 07:18:52;;;;;;;0.30;0.20;;;3.50;99.90;;;;;;5104112;28;20378;-76
2023/11/24 07:21:18;;;;;;;0.30;0.20;;;3.50;99.90;;;;;;5103664;28;20180;-75
2023/11/24 07:23:43;;;;;;;0.30;0.20;;;3.50;99.90;;;;;;5105529;28;20210;-79
2023/11/24 07:26:14;;;;;;;0.30;0.20;;;3.50;99.90;;;;;;5107693;28;20183;-76
2023/11/24 07:28:42;;;;;;;0.30;0.20;;;3.50;99.90;;;;;;5116076;27;20848;-76
2023/11/24 07:31:08;;;;;;;1.30;1.30;;;3.50;99.90;;;;;;5103285;28;20655;-76
2023/11/24 07:33:34;;;;;;;0.30;0.20;;;3.50;99.90;;;;;;5104172;28;20294;-76
2023/11/24 07:36:00;;;;;;;0.30;0.20;;;3.50;99.90;;;;;;5105785;28;20277;-79
2023/11/24 07:38:26;;;;;;;0.30;0.20;;;3.60;99.90;;;;;;5103811;27;20306;-79
2023/11/24 07:40:51;;;;;;;0.30;0.20;;;3.60;99.90;;;;;;5104505;28;20243;-81
2023/11/24 07:43:17;;;;;;;2.30;2.10;;;3.60;99.90;;;;;;5099707;28;20761;-78
2023/11/24 07:45:48;;;;;;;0.30;0.20;;;3.50;99.90;;;;;;5104587;28;20184;-80
2023/11/24 07:48:15;;;;;;;0.30;0.20;;;3.60;99.90;;;;;;5105053;28;20203;-81
2023/11/24 07:50:41;;;;;;;0.30;0.20;;;3.70;99.90;;;;;;5106459;28;20868;-77
2023/11/24 07:53:07;;;;;;;1.60;1.60;;;3.70;99.90;;;;;;5103373;28;20206;-80
2023/11/24 07:55:32;;;;;;;0.30;0.20;;;3.80;99.90;;;;;;5105030;28;20188;-80
2023/11/24 07:57:58;;;;;;;0.30;0.20;;;3.80;99.90;;;;;;5101209;28;20830;-80
2023/11/24 08:00:24;;;;;;;1.83;1.83;;;3.80;99.90;;;;;;5100386;28;20264;-81
2023/11/24 08:02:49;;;;;;;0.30;0.20;;;3.90;99.90;;;;;;5104410;28;20359;-78
2023/11/24 08:05:16;;;;;;;1.17;1.17;;;4.00;99.90;;;;;;5103157;28;20583;-80
2023/11/24 08:07:44;;;;;;;0.30;0.20;;;4.00;99.90;;;;;;5109893;27;20188;-78
2023/11/24 08:10:10;;;;;;;0.35;0.35;;;4.00;99.90;;;;;;5111616;27;20188;-81
2023/11/24 08:12:35;;;;;;;0.30;0.20;;;4.10;99.90;;;;;;5101440;28;20176;-80
2023/11/24 08:15:01;;;;;;;0.30;0.20;;;4.20;99.90;;;;;;5099102;28;20763;-79
2023/11/24 08:17:28;;;;;;;0.30;0.20;;;4.20;99.90;;;;;;5112654;27;20811;-78
2023/11/24 08:19:54;;;;;;;0.30;0.30;;;4.30;99.90;;;;;;5101296;28;20208;-81
2023/11/24 08:22:20;;;;;;;0.30;0.20;;;4.30;99.90;;;;;;5102628;28;20403;-80
2023/11/24 08:24:46;;;;;;;0.30;0.20;;;4.40;99.90;;;;;;5100531;28;20244;-78
2023/11/24 08:27:12;;;;;;;0.30;0.20;;;4.40;99.90;;;;;;5104296;27;20469;-81
2023/11/24 08:29:38;;;;;;;0.30;0.20;;;4.50;99.90;;;;;;5102064;28;20290;-80
2023/11/24 08:32:04;;;;;;;0.30;0.20;;;4.50;99.90;;;;;;5102790;28;20393;-81
2023/11/24 08:34:30;;;;;;;0.30;0.20;;;4.50;99.90;;;;;;5094810;28;20462;-79
2023/11/24 08:36:55;;;;;;;0.30;0.20;;;4.50;99.90;;;;;;5099409;28;20194;-79
2023/11/24 08:39:21;;;;;;;0.30;0.20;;;4.50;99.90;;;;;;5101368;28;20208;-81
2023/11/24 08:41:48;;;;;;;0.30;0.30;;;4.50;99.90;;;;;;5100995;28;20207;-81
2023/11/24 08:44:14;;;;;;;0.30;0.20;;;4.50;99.90;;;;;;5092523;28;20211;-76
2023/11/24 08:46:42;;;;;;;0.30;0.20;;;4.40;99.90;;;;;;5100905;28;20188;-75
2023/11/24 08:49:08;;;;;;;0.55;0.55;;;4.40;99.90;;;;;;5100555;28;21668;-76
2023/11/24 08:51:35;;;;;;;0.30;0.20;;;4.40;99.90;;;;;;5102697;28;20182;-77
2023/11/24 08:54:00;;;;;;;0.30;0.20;;;4.40;99.90;;;;;;5097179;28;20231;-77
2023/11/24 08:56:30;;;;;;;0.30;0.20;;;4.50;99.90;;;;;;5091746;28;20179;-77
2023/11/24 08:58:56;;;;;;;0.30;0.20;;;4.50;99.90;;;;;;5100041;28;20455;-82
2023/11/24 09:01:22;;;;;;;0.30;0.20;;;4.60;99.90;;;;;;5102063;28;20182;-82
2023/11/24 09:03:48;;;;;;;0.30;0.20;;;4.60;99.90;;;;;;5100208;28;20517;-80
2023/11/24 09:06:14;;;;;;;0.30;0.20;;;4.60;99.90;;;;;;5102335;28;20263;-79
2023/11/24 09:08:41;;;;;;;0.30;0.20;;;4.70;99.90;;;;;;5102674;28;20418;-79
2023/11/24 09:11:07;;;;;;;0.30;0.20;;;4.70;99.90;;;;;;5110850;27;20406;-79
2023/11/24 09:13:34;;;;;;;4.97;4.78;;;4.80;99.90;;;;;;5103843;28;20216;-79
2023/11/24 09:16:02;;;;;;;0.30;0.20;;;4.80;99.90;;;;;;5104056;27;20622;-78
2023/11/24 09:18:28;;;;;;;0.30;0.20;;;4.90;99.90;;;;;;5099765;28;20195;-79
2023/11/24 09:20:55;;;;;;;0.30;0.20;;;4.90;99.90;;;;;;5109665;27;20194;-78
2023/11/24 09:23:21;;;;;;;0.30;0.20;;;4.90;99.90;;;;;;5102433;28;20252;-79
2023/11/24 09:25:48;;;;;;;0.30;0.20;;;4.90;99.90;;;;;;5102340;28;20274;-79
2023/11/24 09:28:16;;;;;;;0.30;0.20;;;4.80;99.90;;;;;;5102183;28;20211;-79
2023/11/24 09:30:42;;;;;;;0.30;0.20;;;4.90;99.90;;;;;;5097278;28;20183;-80
2023/11/24 09:33:07;;;;;;;7.60;7.30;;;4.90;99.90;;;;;;5096845;28;20697;-78
2023/11/24 09:35:33;;;;;;;0.30;0.20;;;5.00;99.90;;;;;;5107554;27;20721;-77
2023/11/24 09:37:59;;;;;;;0.30;0.20;;;5.10;99.90;;;;;;5097891;28;20288;-77
2023/11/24 09:40:26;;;;;;;0.30;0.20;;;5.10;99.90;;;;;;5100025;28;20183;-77
2023/11/24 09:42:52;;;;;;;0.30;0.20;;;5.20;99.90;;;;;;5104216;27;20183;-78
2023/11/24 09:45:21;;;;;;;0.30;0.20;;;5.30;99.90;;;;;;5103116;28;20259;-79
2023/11/24 09:47:52;;;;;;;0.30;0.20;;;5.30;99.90;;;;;;5098907;28;20187;-79
2023/11/24 09:50:25;;;;;;;0.30;0.20;;;5.50;99.90;;;;;;5103648;28;20195;-77
2023/11/24 09:52:55;;;;;;;0.30;0.20;;;5.60;99.90;;;;;;5100503;28;20260;-80
2023/11/24 09:55:23;;;;;;;0.30;0.20;;;5.70;99.90;;;;;;5098193;28;20179;-76
2023/11/24 09:57:51;;;;;;;0.30;0.20;;;5.70;99.90;;;;;;5100221;28;20183;-77
2023/11/24 10:00:19;;;;;;;0.30;0.20;;;5.80;99.90;;;;;;5099146;28;20188;-79
2023/11/24 10:02:46;;;;;;;0.30;0.20;;;5.80;99.90;;;;;;5103105;28;20900;-78
2023/11/24 10:05:17;;;;;;;0.30;0.20;;;5.90;99.90;;;;;;5095653;28;20280;-79
2023/11/24 10:07:50;;;;;;;0.30;0.20;;;5.90;99.90;;;;;;5098420;28;20176;-77
2023/11/24 10:10:22;;;;;;;0.30;0.20;;;5.90;99.90;;;;;;5100145;28;20771;-77
2023/11/24 10:12:48;;;;;;;0.30;0.20;;;6.00;99.90;;;;;;5098288;28;20357;-77
2023/11/24 10:15:14;;;;;;;0.30;0.20;;;6.10;99.90;;;;;;5093657;28;20545;-77
2023/11/24 10:17:42;;;;;;;0.30;0.20;;;6.20;99.90;;;;;;5092956;28;20235;-77
2023/11/24 10:20:11;;;;;;;0.30;0.20;;;6.30;99.90;;;;;;5096151;28;20445;-76
2023/11/24 10:22:40;;;;;;;0.30;0.20;;;6.40;99.90;;;;;;5084477;28;20816;-75
2023/11/24 10:25:10;;;;;;;0.30;0.20;;;6.50;99.90;;;;;;5099500;28;20641;-77
2023/11/24 10:27:36;;;;;;;0.30;0.20;;;6.70;99.90;;;;;;5093570;28;20226;-77
2023/11/24 10:30:04;;;;;;;0.30;0.20;;;6.80;99.90;;;;;;5095934;28;20265;-77
2023/11/24 10:32:31;;;;;;;0.30;0.20;;;6.90;99.90;;;;;;5096514;28;20406;-75
2023/11/24 10:35:00;;;;;;;0.30;0.20;;;7.10;99.90;;;;;;5102347;28;20223;-74
2023/11/24 10:37:28;;;;;;;0.30;0.20;;;7.20;99.90;;;;;;5102441;28;20176;-76
2023/11/24 10:39:58;;;;;;;0.30;0.20;;;7.40;99.90;;;;;;5102707;28;20208;-77
2023/11/24 10:42:26;;;;;;;0.30;0.20;;;7.60;99.90;;;;;;5098278;28;20423;-78
2023/11/24 10:44:57;;;;;;;0.30;0.20;;;7.80;99.90;;;;;;5101850;28;20673;-76
2023/11/24 10:47:31;;;;;;;0.30;0.20;;;7.90;99.90;;;;;;5101533;28;20207;-77
2023/11/24 10:50:12;;;;;;;0.30;0.20;;;8.10;99.90;;;;;;5094793;28;20204;-76
2023/11/24 10:53:09;;;;;;;0.30;0.20;;;8.30;99.90;;;;;;5096666;28;20183;-76
2023/11/24 10:55:38;;;;;;;0.30;0.20;;;8.40;99.90;;;;;;5096539;28;20192;-77
2023/11/24 10:58:05;;;;;;;0.30;0.20;;;8.50;99.90;;;;;;5098990;28;20423;-76
2023/11/24 11:00:30;;;;;;;0.30;0.20;;;8.60;99.90;;;;;;5098071;28;20253;-77
2023/11/24 11:02:57;;;;;;;0.30;0.20;;;8.70;99.90;;;;;;5097123;28;20203;-77
2023/11/24 11:05:58;;;;;;;0.30;0.20;;;8.80;99.90;;;;;;5099138;28;20535;-77
2023/11/24 11:08:35;;;;;;;0.30;0.20;;;8.90;99.90;;;;;;5101180;28;20196;-76
2023/11/24 11:11:12;;;;;;;0.30;0.20;;;9.00;99.90;;;;;;5099347;28;20618;-77
2023/11/24 11:13:40;;;;;;;0.30;0.20;;;9.10;99.90;;;;;;5093137;28;20665;-76
2023/11/24 11:16:10;;;;;;;0.30;0.20;;;9.20;99.90;;;;;;5096043;28;20364;-76
2023/11/24 11:18:36;;;;;;;0.60;0.60;;;9.20;99.90;;;;;;5113698;27;20196;-75
2023/11/24 11:21:39;;;;;;;0.30;0.20;;;9.30;99.90;;;;;;5100421;28;20690;-76
2023/11/24 11:24:08;;;;;;;0.30;0.20;;;9.40;99.90;;;;;;5100707;28;20203;-76
2023/11/24 11:26:51;;;;;;;0.30;0.20;;;9.50;99.90;;;;;;5099630;28;21292;-76
2023/11/24 11:29:28;;;;;;;0.30;0.20;;;9.50;99.90;;;;;;5097679;28;20204;-77
2023/11/24 11:31:55;;;;;;;0.30;0.20;;;9.60;99.90;;;;;;5099751;28;20176;-77
2023/11/24 11:34:31;;;;;;;2.60;1.20;;;9.70;99.90;;;;;;5100063;28;20518;-76
2023/11/24 11:37:11;;;;;;;0.30;0.20;;;9.80;99.90;;;;;;5100805;28;20278;-76
2023/11/24 11:39:44;;;;;;;0.30;0.30;;;9.90;99.90;;;;;;5102205;28;20235;-75
2023/11/24 11:42:10;;;;;;;0.90;0.90;;;9.90;99.90;;;;;;5099771;28;20160;-78
2023/11/24 11:44:39;;;;;;;0.30;0.20;;;9.90;99.90;;;;;;5101323;28;20563;-76
2023/11/24 11:47:31;;;;;;;0.30;0.20;;;9.90;99.90;;;;;;5096145;28;20206;-76
2023/11/24 11:49:56;;;;;;;0.30;0.20;;;10.00;99.90;;;;;;5103736;28;20619;-76
2023/11/24 11:52:27;;;;;;;5.28;4.00;;;10.00;99.90;;;;;;5095085;28;20642;-76
2023/11/24 11:54:55;;;;;;;8.57;7.95;;;10.00;99.90;;;;;;5093743;28;20294;-76
2023/11/24 11:57:22;;;;;;;2.75;2.65;;;10.00;99.90;;;;;;5072220;28;20180;-77
2023/11/24 11:59:49;;;;;;;0.30;0.20;;;10.00;99.90;;;;;;5092531;28;20204;-76
2023/11/24 12:02:16;;;;;;;0.30;0.20;;;10.00;99.90;;;;;;5077292;28;20233;-76
2023/11/24 12:04:45;;;;;;;2.35;2.15;;;10.00;99.90;;;;;;5091843;28;20510;-77
2023/11/24 12:07:13;;;;;;;0.30;0.20;;;10.00;99.90;;;;;;5092608;28;20245;-76
2023/11/24 12:09:39;;;;;;;6.07;1.95;;;10.00;99.90;;;;;;5090574;28;20199;-76
2023/11/24 12:12:06;;;;;;;0.30;0.22;;;10.00;99.90;;;;;;5091607;28;20171;-76
2023/11/24 12:14:31;;;;;;;0.30;0.20;;;10.00;99.90;;;;;;5096873;28;20280;-77
2023/11/24 12:16:58;;;;;;;0.30;0.20;;;10.00;99.90;;;;;;5098476;28;20227;-76
2023/11/24 12:19:29;;;;;;;0.30;0.20;;;10.00;99.90;;;;;;5112325;28;20474;-76
2023/11/24 12:21:59;;;;;;;1.10;1.10;;;10.10;99.90;;;;;;5105098;28;20177;-76
2023/11/24 12:24:29;;;;;;;1.15;1.15;;;10.20;99.90;;;;;;5102452;28;20492;-76
2023/11/24 12:26:56;;;;;;;1.48;1.27;;;10.30;99.90;;;;;;5102005;28;20233;-76
2023/11/24 12:29:25;;;;;;;0.30;0.20;;;10.40;99.90;;;;;;5102649;28;20196;-76
2023/11/24 12:31:51;;;;;;;0.30;0.20;;;10.40;99.90;;;;;;5096829;28;20203;-76
2023/11/24 12:34:22;;;;;;;0.30;0.20;;;10.40;99.90;;;;;;5091943;28;20231;-78
2023/11/24 12:36:54;;;;;;;2.95;2.70;;;10.40;99.90;;;;;;5098382;28;20181;-76
2023/11/24 12:39:34;;;;;;;3.63;3.53;;;10.40;99.90;;;;;;5085641;28;20211;-76
2023/11/24 12:42:00;;;;;;;0.30;0.20;;;10.50;99.90;;;;;;5100642;28;20186;-75
2023/11/24 12:44:26;;;;;;;0.30;0.20;;;10.50;99.90;;;;;;5100570;28;20200;-76
2023/11/24 12:47:15;;;;;;;0.30;0.20;;;10.60;99.90;;;;;;5094548;28;20192;-76
2023/11/24 12:50:06;;;;;;;0.30;0.20;;;10.60;99.90;;;;;;5098480;28;20290;-77
2023/11/24 12:52:34;;;;;;;0.30;0.20;;;10.70;99.90;;;;;;5098173;28;20239;-76
2023/11/24 12:55:01;;;;;;;4.95;4.38;;;10.60;99.90;;;;;;5088962;28;20739;-79
2023/11/24 12:57:27;;;;;;;0.30;0.20;;;10.60;99.90;;;;;;5099862;28;20186;-79